Terminal Aerodrome Forecast
Issued by NWS

Current Version | Previous Version | Text Only | Print | Product List | Glossary On
Versions: 1 2 3 4 5 6 7 8 9 10 11 12 13
562
FTUS42 TJSJ 081135
TAFJPS
TAF
TJPS 081135Z 0812/0912 05005KT P6SM FEW025
     FM081300 14010G15KT P6SM FEW030 FEW050
     FM082300 05005KT P6SM FEW025
      AMD NOT SKED 0812/0903=

USA.gov is the U.S. government's official web portal to all federal, state and local government web resources and services.